createdAt,value
2023-11-15T00:02:44.907Z,31.83
2023-11-15T00:06:48.882Z,28.97
2023-11-15T00:10:52.341Z,28.50
2023-11-15T00:14:57.136Z,29.20
2023-11-15T00:19:00.468Z,27.77
2023-11-15T00:23:03.985Z,28.70
2023-11-15T00:27:09.728Z,29.80
2023-11-15T00:31:15.173Z,29.10
2023-11-15T00:35:18.910Z,29.40
2023-11-15T00:39:23.230Z,26.80
2023-11-15T00:43:26.570Z,31.57
2023-11-15T00:47:32.991Z,30.80
2023-11-15T00:51:36.813Z,35.67
2023-11-15T00:55:40.181Z,34.40
2023-11-15T00:59:48.274Z,31.27
2023-11-15T01:03:58.192Z,30.03
2023-11-15T01:08:01.602Z,26.97
2023-11-15T01:12:05.882Z,27.67
2023-11-15T01:16:10.996Z,30.73
2023-11-15T01:20:16.143Z,34.83
2023-11-15T01:24:19.559Z,28.30
2023-11-15T01:28:23.680Z,29.33
2023-11-15T01:32:27.091Z,29.03
2023-11-15T01:36:31.835Z,30.63
2023-11-15T01:40:39.328Z,27.83
2023-11-15T01:44:42.749Z,29.67
2023-11-15T01:48:46.392Z,31.80
2023-11-15T01:52:51.350Z,27.97
2023-11-15T01:56:55.311Z,31.60
2023-11-15T02:00:58.893Z,27.20
2023-11-15T02:05:02.615Z,27.10
2023-11-15T02:09:08.501Z,27.83
2023-11-15T02:13:23.857Z,26.57
2023-11-15T02:17:27.384Z,27.23
2023-11-15T02:21:30.816Z,27.87
2023-11-15T02:25:36.836Z,27.53
2023-11-15T02:29:40.634Z,27.53
2023-11-15T02:33:46.035Z,29.40
2023-11-15T02:37:49.374Z,29.43
2023-11-15T02:41:54.180Z,27.97
2023-11-15T02:45:57.500Z,26.80
2023-11-15T02:50:00.855Z,29.90
2023-11-15T02:54:05.293Z,33.07
2023-11-15T02:58:10.140Z,28.57
2023-11-15T03:02:15.735Z,29.77
2023-11-15T03:06:19.575Z,31.90
2023-11-15T03:10:23.357Z,28.73
2023-11-15T03:14:28.743Z,30.57
2023-11-15T03:18:32.288Z,32.30
2023-11-15T03:22:35.656Z,29.37
2023-11-15T03:26:39.440Z,28.27
2023-11-15T03:30:44.154Z,29.60
2023-11-15T03:34:47.609Z,29.70
2023-11-15T03:38:50.963Z,29.00
2023-11-15T03:42:54.438Z,30.00
2023-11-15T03:46:59.467Z,31.90
2023-11-15T03:51:02.988Z,29.70
2023-11-15T03:55:07.137Z,28.40
2023-11-15T03:59:11.266Z,28.40
2023-11-15T04:03:16.749Z,27.77
2023-11-15T04:07:22.799Z,28.73
2023-11-15T04:11:26.988Z,31.37
2023-11-15T04:15:30.421Z,32.17
2023-11-15T04:19:35.147Z,29.00
2023-11-15T04:23:39.235Z,29.87
2023-11-15T04:27:42.951Z,29.50
2023-11-15T04:31:46.213Z,28.10
2023-11-15T04:35:51.020Z,29.27
2023-11-15T04:39:54.414Z,28.30
2023-11-15T04:43:57.744Z,28.67
2023-11-15T04:48:01.190Z,27.40
2023-11-15T04:52:06.395Z,29.77
2023-11-15T04:56:10.894Z,27.33
2023-11-15T05:00:15.631Z,27.57
2023-11-15T05:04:19.383Z,28.70
2023-11-15T05:08:25.030Z,27.47
2023-11-15T05:12:30.688Z,28.80
2023-11-15T05:16:34.748Z,26.33
2023-11-15T05:20:38.673Z,27.90
2023-11-15T05:24:44.008Z,26.13
2023-11-15T05:28:47.359Z,29.07
2023-11-15T05:32:50.896Z,29.50
2023-11-15T05:36:54.683Z,27.70
2023-11-15T05:40:59.634Z,29.10
2023-11-15T05:45:03.040Z,28.57
2023-11-15T05:49:09.298Z,28.80
2023-11-15T05:53:13.239Z,55.50
2023-11-15T05:57:18.313Z,43.43
2023-11-15T06:01:22.797Z,34.43
2023-11-15T06:05:26.587Z,42.60
2023-11-15T06:09:31.567Z,29.30
2023-11-15T06:13:39.990Z,28.90
2023-11-15T06:17:45.006Z,26.00
2023-11-15T06:21:49.062Z,26.80
2023-11-15T06:25:52.657Z,22.20
2023-11-15T06:29:58.322Z,22.00
2023-11-15T06:34:02.089Z,21.43
2023-11-15T06:38:07.617Z,22.10
2023-11-15T06:42:14.003Z,22.80
2023-11-15T06:46:22.079Z,22.07
2023-11-15T06:50:27.315Z,22.00
2023-11-15T06:54:30.758Z,21.87
2023-11-15T06:58:34.145Z,21.70
2023-11-15T07:02:39.935Z,23.13
2023-11-15T07:06:47.104Z,29.07
2023-11-15T07:10:50.398Z,25.27
2023-11-15T07:14:54.337Z,22.27
2023-11-15T07:18:59.132Z,25.13
2023-11-15T07:23:03.308Z,23.60
2023-11-15T07:27:07.251Z,22.30
2023-11-15T07:31:13.895Z,23.23
2023-11-15T07:35:20.865Z,22.57
2023-11-15T07:39:25.956Z,26.60
2023-11-15T07:43:29.356Z,22.90
2023-11-15T07:47:35.876Z,22.10
2023-11-15T07:51:41.091Z,32.87
2023-11-15T07:55:44.410Z,22.60
2023-11-15T07:59:48.721Z,21.73
2023-11-15T08:03:52.254Z,21.70
2023-11-15T08:07:58.273Z,20.20
2023-11-15T08:12:02.604Z,20.77
2023-11-15T08:16:07.645Z,19.57
2023-11-15T08:20:12.941Z,19.53
2023-11-15T08:24:22.547Z,21.90
2023-11-15T08:28:26.224Z,18.97
2023-11-15T08:32:30.447Z,18.90
2023-11-15T08:36:33.863Z,18.87
2023-11-15T08:40:50.572Z,18.70
2023-11-15T08:44:54.927Z,20.10
2023-11-15T08:49:01.942Z,18.63
2023-11-15T08:53:05.523Z,21.77
2023-11-15T08:57:10.332Z,18.70
2023-11-15T09:01:18.424Z,19.60
2023-11-15T09:05:26.302Z,20.77
2023-11-15T09:09:30.385Z,21.43
2023-11-15T09:13:38.060Z,21.00
2023-11-15T09:17:47.675Z,21.00
2023-11-15T09:21:52.574Z,22.10
2023-11-15T09:25:59.117Z,20.50
2023-11-15T09:30:03.879Z,20.70
2023-11-15T09:34:09.495Z,21.90
2023-11-15T09:38:15.148Z,21.00
2023-11-15T09:42:21.072Z,21.03
2023-11-15T09:46:28.506Z,26.43
2023-11-15T09:50:35.021Z,20.70
2023-11-15T09:54:41.330Z,19.67
2023-11-15T09:58:48.671Z,23.63
2023-11-15T10:02:54.976Z,22.30
2023-11-15T10:07:05.569Z,20.50
2023-11-15T10:11:10.510Z,27.47
2023-11-15T10:15:14.424Z,43.23
2023-11-15T10:19:28.110Z,49.10
2023-11-15T10:23:33.645Z,38.90
2023-11-15T10:27:38.790Z,32.00
2023-11-15T10:31:52.979Z,22.37
2023-11-15T10:35:57.797Z,21.90
2023-11-15T10:40:04.093Z,17.50
2023-11-15T10:44:14.916Z,18.13
2023-11-15T10:48:23.775Z,16.77
2023-11-15T10:52:30.741Z,15.70
2023-11-15T10:56:36.289Z,15.50
2023-11-15T11:00:45.491Z,15.07
2023-11-15T11:04:52.065Z,14.10
2023-11-15T11:09:06.043Z,17.93
2023-11-15T11:13:20.171Z,13.10
2023-11-15T11:17:34.791Z,12.50
2023-11-15T11:22:09.445Z,12.33
2023-11-15T11:26:37.295Z,12.27
2023-11-15T11:30:41.829Z,12.63
2023-11-15T11:35:42.126Z,11.00
2023-11-15T11:39:54.955Z,15.80
2023-11-15T11:44:00.629Z,11.70
2023-11-15T11:48:04.792Z,12.43
2023-11-15T11:52:08.691Z,13.77
2023-11-15T11:56:15.144Z,13.60
2023-11-15T12:00:22.798Z,14.13
2023-11-15T12:04:26.469Z,13.40
2023-11-15T12:08:32.414Z,12.30
2023-11-15T12:12:36.362Z,11.60
2023-11-15T12:16:41.117Z,10.40
2023-11-15T12:20:44.948Z,9.63
2023-11-15T12:24:50.164Z,9.70
2023-11-15T12:28:53.726Z,9.70
2023-11-15T12:33:01.776Z,10.43
2023-11-15T12:37:08.781Z,10.03
2023-11-15T12:41:12.723Z,9.50
2023-11-15T12:45:30.027Z,9.40
2023-11-15T12:49:36.719Z,10.07
2023-11-15T12:53:42.710Z,10.50
2023-11-15T12:57:53.651Z,9.30
2023-11-15T13:01:57.064Z,9.20
2023-11-15T13:06:13.024Z,9.70
2023-11-15T13:10:18.608Z,10.93
2023-11-15T13:14:23.586Z,12.03
2023-11-15T13:18:27.614Z,12.63
2023-11-15T13:22:32.891Z,13.17
2023-11-15T13:26:36.780Z,13.23
2023-11-15T13:30:40.495Z,13.43
2023-11-15T13:34:46.050Z,13.77
2023-11-15T13:38:51.158Z,13.83
2023-11-15T13:42:54.717Z,14.13
2023-11-15T13:46:58.223Z,14.70
2023-11-15T13:51:01.732Z,14.33
2023-11-15T13:55:08.824Z,14.87
2023-11-15T13:59:12.911Z,14.87
2023-11-15T14:03:16.454Z,14.80
2023-11-15T14:07:20.951Z,14.73
2023-11-15T14:11:28.962Z,15.70
2023-11-15T14:15:32.417Z,42.40
2023-11-15T14:19:35.925Z,16.67
2023-11-15T14:23:40.204Z,16.27
2023-11-15T14:27:45.162Z,15.70
2023-11-15T14:31:48.658Z,15.80
2023-11-15T14:35:52.100Z,16.00
2023-11-15T14:39:55.483Z,15.97
2023-11-15T14:44:00.661Z,24.40
2023-11-15T14:48:05.510Z,16.60
2023-11-15T14:52:12.246Z,16.33
2023-11-15T14:56:16.099Z,16.53
2023-11-15T15:00:22.097Z,16.53
2023-11-15T15:04:25.732Z,16.90
2023-11-15T15:08:29.195Z,17.43
2023-11-15T15:12:32.565Z,18.30
2023-11-15T15:16:39.463Z,17.00
2023-11-15T15:20:42.852Z,17.47
2023-11-15T15:24:46.426Z,18.23
2023-11-15T15:28:49.805Z,20.03
2023-11-15T15:32:54.658Z,21.83
2023-11-15T15:36:58.089Z,19.13
2023-11-15T15:41:01.988Z,18.40
2023-11-15T15:45:09.063Z,20.80
2023-11-15T15:49:15.150Z,20.50
2023-11-15T15:53:18.687Z,19.03
2023-11-15T15:57:24.311Z,19.40
2023-11-15T16:01:30.647Z,19.30
2023-11-15T16:05:35.368Z,19.77
2023-11-15T16:09:42.697Z,22.03
2023-11-15T16:13:46.267Z,22.60
2023-11-15T16:17:50.430Z,21.57
2023-11-15T16:21:55.602Z,25.30
2023-11-15T16:26:00.879Z,27.20
2023-11-15T16:30:05.344Z,26.33
2023-11-15T16:34:08.739Z,26.80
2023-11-15T16:38:14.185Z,28.33
2023-11-15T16:42:21.617Z,26.80
2023-11-15T16:46:25.251Z,25.60
2023-11-15T16:50:29.647Z,34.10
2023-11-15T16:54:36.347Z,28.17
2023-11-15T16:58:39.836Z,30.80
2023-11-15T17:02:45.482Z,37.30
2023-11-15T17:06:48.932Z,42.73
2023-11-15T17:10:53.756Z,44.03
2023-11-15T17:15:00.620Z,42.83
2023-11-15T17:19:05.194Z,48.10
2023-11-15T17:23:10.579Z,31.07
2023-11-15T17:27:17.420Z,33.33
2023-11-15T17:31:26.347Z,33.97
2023-11-15T17:35:31.704Z,41.23
2023-11-15T17:39:38.048Z,32.13
2023-11-15T17:43:44.222Z,31.87
2023-11-15T17:47:49.204Z,30.83
2023-11-15T17:51:57.721Z,30.23
2023-11-15T17:56:02.744Z,30.37
2023-11-15T18:00:14.876Z,29.40
2023-11-15T18:04:19.618Z,28.10
2023-11-15T18:08:24.972Z,27.00
2023-11-15T18:12:30.338Z,27.40
2023-11-15T18:16:36.752Z,28.63
2023-11-15T18:20:45.853Z,27.90
2023-11-15T18:24:51.788Z,27.40
2023-11-15T18:28:57.144Z,28.70
2023-11-15T18:33:07.353Z,28.40
2023-11-15T18:37:13.068Z,31.40
2023-11-15T18:41:19.231Z,29.90
2023-11-15T18:45:24.787Z,34.27
2023-11-15T18:49:31.956Z,29.00
2023-11-15T18:53:37.136Z,29.23
2023-11-15T18:57:41.966Z,29.00
2023-11-15T19:01:48.422Z,27.50
2023-11-15T19:05:56.843Z,30.50
2023-11-15T19:10:04.090Z,28.20
2023-11-15T19:14:10.047Z,29.73
2023-11-15T19:18:16.472Z,29.30
2023-11-15T19:22:24.073Z,34.73
2023-11-15T19:26:30.857Z,36.33
2023-11-15T19:30:38.995Z,30.13
2023-11-15T19:34:46.570Z,26.30
2023-11-15T19:38:53.910Z,26.70
2023-11-15T19:43:01.886Z,31.17
2023-11-15T19:47:10.574Z,36.30
2023-11-15T19:51:37.095Z,32.77
2023-11-15T19:55:51.161Z,36.60
2023-11-15T20:00:00.674Z,36.03
2023-11-15T20:04:10.595Z,27.80
2023-11-15T20:08:21.370Z,28.23
2023-11-15T20:12:31.028Z,29.03
2023-11-15T20:16:38.168Z,30.43
2023-11-15T20:20:45.213Z,27.73
2023-11-15T20:24:51.165Z,26.83
2023-11-15T20:28:58.076Z,26.30
2023-11-15T20:33:04.801Z,27.93
2023-11-15T20:37:09.902Z,28.67
2023-11-15T20:41:15.524Z,29.40
2023-11-15T20:45:24.252Z,27.20
2023-11-15T20:49:29.654Z,26.57
2023-11-15T20:53:37.812Z,25.03
2023-11-15T20:57:50.682Z,27.27
2023-11-15T21:01:55.565Z,29.20
2023-11-15T21:06:01.397Z,26.90
2023-11-15T21:10:05.096Z,28.20
2023-11-15T21:14:10.357Z,25.13
2023-11-15T21:18:16.586Z,27.00
2023-11-15T21:22:20.908Z,29.83
2023-11-15T21:26:25.582Z,26.83
2023-11-15T21:30:31.247Z,26.87
2023-11-15T21:34:37.862Z,30.10
2023-11-15T21:38:41.677Z,28.97
2023-11-15T21:42:46.883Z,26.90
2023-11-15T21:46:51.989Z,26.80
2023-11-15T21:50:56.965Z,28.93
2023-11-15T21:55:01.854Z,29.80
2023-11-15T21:59:05.774Z,29.70
2023-11-15T22:03:10.890Z,28.87
2023-11-15T22:07:17.088Z,29.50
2023-11-15T22:11:21.900Z,28.73
2023-11-15T22:15:26.662Z,29.13
2023-11-15T22:19:32.397Z,28.63
2023-11-15T22:23:37.227Z,30.23
2023-11-15T22:27:40.663Z,27.83
2023-11-15T22:31:48.112Z,38.27
2023-11-15T22:35:52.936Z,43.97
2023-11-15T22:39:59.641Z,49.03
2023-11-15T22:44:03.192Z,51.93
2023-11-15T22:48:07.562Z,61.57
2023-11-15T22:52:10.913Z,60.40
2023-11-15T22:56:17.285Z,56.70
2023-11-15T23:00:33.707Z,75.90
2023-11-15T23:04:37.697Z,97.67
2023-11-15T23:08:42.089Z,59.40
2023-11-15T23:12:46.961Z,43.80
2023-11-15T23:16:50.596Z,33.27
2023-11-15T23:20:53.894Z,24.23
2023-11-15T23:24:59.224Z,24.50
2023-11-15T23:29:04.488Z,28.43
2023-11-15T23:33:08.453Z,31.77
2023-11-15T23:37:11.884Z,28.53
2023-11-15T23:41:15.257Z,27.80
2023-11-15T23:45:20.036Z,23.80
2023-11-15T23:49:23.468Z,23.80
2023-11-15T23:53:30.205Z,24.10
2023-11-15T23:57:34.191Z,23.60
